Jette Viking Hv77 — 5QEP — position and weather

sailwx.info

Track history (hours):
 
Tides and Currents Weather Stations Pressure Air Temp Water Temp Dewpoint Dewpoint Depression Visibility Wind Speed Wind Dir Waves Ship Positions

Jette Viking Hv77

Last reported at 2015-Mar-04 16:18 UTC. Time now 2015-Mar-04 16:51 UTC.
Position N 55°08' E 009°52'.

Length 16 m.

Type: Fishing. MMSI: 220046000.

Date/timePositionNaut miles runAvg speedWind from/ knotsBaromVisibWave heightAir tempDewpointWater temp
2015-Mar-04 16:18N 55°08' E 009°52'5 7.2
2015-Mar-04 15:33N 55°04' E 009°58'3 2.3
2015-Mar-04 14:26N 55°02' E 010°01'3 3.1
2015-Mar-04 13:21N 54°60' E 010°04'3 3.0
2015-Mar-04 12:30N 54°58' E 010°08'4 3.2
2015-Mar-04 11:12N 55°02' E 010°05'2 3.4
2015-Mar-04 10:30N 55°03' E 010°01'2 2.3
2015-Mar-04 09:32N 55°01' E 010°03'4 3.2
2015-Mar-04 08:24N 54°58' E 010°07'2 2.0
2015-Mar-04 07:31N 54°60' E 010°07'4 3.3
2015-Mar-04 06:20N 55°03' E 010°02'14 1.0
2015-Mar-03 16:06N 55°10' E 009°41'5 8.3
2015-Mar-03 15:33N 55°06' E 009°37'4 3.5
2015-Mar-03 14:25N 55°03' E 009°33'3 3.3
2015-Mar-03 13:33N 55°04' E 009°37'3 2.9
2015-Mar-03 12:32N 55°03' E 009°32'2 1.7
2015-Mar-03 11:23N 55°04' E 009°35'1 1.0
2015-Mar-03 10:33N 55°05' E 009°35'2 2.3
2015-Mar-03 09:33N 55°03' E 009°32'3 2.8
2015-Mar-03 08:33N 55°04' E 009°36'1 0.7
2015-Mar-03 07:33N 55°04' E 009°35'3 3.2
2015-Mar-03 06:34N 55°02' E 009°31'9 0.7
2015-Mar-02 16:05N 55°10' E 009°41'4 7.5
2015-Mar-02 15:33N 55°07' E 009°37'4 4.0
2015-Mar-02 14:33N 55°04' E 009°33'1 1.1
2015-Mar-02 13:32N 55°04' E 009°35'2 2.0
2015-Mar-02 12:29N 55°03' E 009°31'2 2.4
2015-Mar-02 11:33N 55°03' E 009°35'1 0.8
2015-Mar-02 10:33N 55°04' E 009°34'2 1.9
2015-Mar-02 09:33N 55°03' E 009°33'3 3.1
2015-Mar-02 08:33N 55°05' E 009°37'3 3.0
2015-Mar-02 07:25N 55°03' E 009°32'  
2015-Feb-27 16:24N 55°10' E 009°41'6 7.5
2015-Feb-27 15:33N 55°05' E 009°36'3 2.6
2015-Feb-27 14:32N 55°03' E 009°32'2 2.0
2015-Feb-27 13:33N 55°04' E 009°35'1 0.7
2015-Feb-27 12:08N 55°03' E 009°34'2 3.1
2015-Feb-27 11:33N 55°04' E 009°37'3 2.5
2015-Feb-27 10:33N 55°03' E 009°33'0 0.3
2015-Feb-27 09:27N 55°03' E 009°33'1 1.0
2015-Feb-27 08:33N 55°04' E 009°33'4 0.1
2015-Feb-25 11:31N 55°08' E 009°38'6 6.0
2015-Feb-25 10:33N 55°03' E 009°32'1 0.5
2015-Feb-25 08:32N 55°04' E 009°33'1 0.8
2015-Feb-25 07:30N 55°04' E 009°34'3 0.2
2015-Feb-24 15:28N 55°07' E 009°37'5 4.8
2015-Feb-24 14:27N 55°03' E 009°32'0 0.3
2015-Feb-24 13:22N 55°03' E 009°32'3 2.3
2015-Feb-24 12:12N 55°04' E 009°37'2 2.9
2015-Feb-24 11:33N 55°06' E 009°38'3 3.2
2015-Feb-24 10:33N 55°04' E 009°33'2 1.2
2015-Feb-24 08:32N 55°05' E 009°37'2 1.9
2015-Feb-24 07:33N 55°04' E 009°34'4 0.3
2015-Feb-23 15:31N 55°08' E 009°37'3 3.1
2015-Feb-23 14:33N 55°05' E 009°36'3 3.2
2015-Feb-23 13:32N 55°03' E 009°32'3 2.9
2015-Feb-23 12:33N 55°04' E 009°36'2 2.0
2015-Feb-23 11:33N 55°06' E 009°38'4 3.3
2015-Feb-23 10:29N 55°03' E 009°33'1 0.8
2015-Feb-23 09:24N 55°03' E 009°35'  
Track history (hours):
 
Tides and Currents Weather Stations Pressure Air Temp Water Temp Dewpoint Dewpoint Depression Visibility Wind Speed Wind Dir Waves Ship Positions

Jette Viking Hv77

Last reported at 2015-Mar-04 16:18 UTC. Time now 2015-Mar-04 16:51 UTC.
Position N 55°08' E 009°52'.

Length 16 m.

Type: Fishing. MMSI: 220046000.

Date/timePositionNaut miles runAvg speedWind from/ knotsBaromVisibWave heightAir tempDewpointWater temp
2015-Mar-04 16:18N 55°08' E 009°52'5 7.2
2015-Mar-04 15:33N 55°04' E 009°58'3 2.3
2015-Mar-04 14:26N 55°02' E 010°01'3 3.1
2015-Mar-04 13:21N 54°60' E 010°04'3 3.0
2015-Mar-04 12:30N 54°58' E 010°08'4 3.2
2015-Mar-04 11:12N 55°02' E 010°05'2 3.4
2015-Mar-04 10:30N 55°03' E 010°01'2 2.3
2015-Mar-04 09:32N 55°01' E 010°03'4 3.2
2015-Mar-04 08:24N 54°58' E 010°07'2 2.0
2015-Mar-04 07:31N 54°60' E 010°07'4 3.3
2015-Mar-04 06:20N 55°03' E 010°02'14 1.0
2015-Mar-03 16:06N 55°10' E 009°41'5 8.3
2015-Mar-03 15:33N 55°06' E 009°37'4 3.5
2015-Mar-03 14:25N 55°03' E 009°33'3 3.3
2015-Mar-03 13:33N 55°04' E 009°37'3 2.9
2015-Mar-03 12:32N 55°03' E 009°32'2 1.7
2015-Mar-03 11:23N 55°04' E 009°35'1 1.0
2015-Mar-03 10:33N 55°05' E 009°35'2 2.3
2015-Mar-03 09:33N 55°03' E 009°32'3 2.8
2015-Mar-03 08:33N 55°04' E 009°36'1 0.7
2015-Mar-03 07:33N 55°04' E 009°35'3 3.2
2015-Mar-03 06:34N 55°02' E 009°31'9 0.7
2015-Mar-02 16:05N 55°10' E 009°41'4 7.5
2015-Mar-02 15:33N 55°07' E 009°37'4 4.0
2015-Mar-02 14:33N 55°04' E 009°33'1 1.1
2015-Mar-02 13:32N 55°04' E 009°35'2 2.0
2015-Mar-02 12:29N 55°03' E 009°31'2 2.4
2015-Mar-02 11:33N 55°03' E 009°35'1 0.8
2015-Mar-02 10:33N 55°04' E 009°34'2 1.9
2015-Mar-02 09:33N 55°03' E 009°33'3 3.1
2015-Mar-02 08:33N 55°05' E 009°37'3 3.0
2015-Mar-02 07:25N 55°03' E 009°32'  
2015-Feb-27 16:24N 55°10' E 009°41'6 7.5
2015-Feb-27 15:33N 55°05' E 009°36'3 2.6
2015-Feb-27 14:32N 55°03' E 009°32'2 2.0
2015-Feb-27 13:33N 55°04' E 009°35'1 0.7
2015-Feb-27 12:08N 55°03' E 009°34'2 3.1
2015-Feb-27 11:33N 55°04' E 009°37'3 2.5
2015-Feb-27 10:33N 55°03' E 009°33'0 0.3
2015-Feb-27 09:27N 55°03' E 009°33'1 1.0
2015-Feb-27 08:33N 55°04' E 009°33'4 0.1
2015-Feb-25 11:31N 55°08' E 009°38'6 6.0
2015-Feb-25 10:33N 55°03' E 009°32'1 0.5
2015-Feb-25 08:32N 55°04' E 009°33'1 0.8
2015-Feb-25 07:30N 55°04' E 009°34'3 0.2
2015-Feb-24 15:28N 55°07' E 009°37'5 4.8
2015-Feb-24 14:27N 55°03' E 009°32'0 0.3
2015-Feb-24 13:22N 55°03' E 009°32'3 2.3
2015-Feb-24 12:12N 55°04' E 009°37'2 2.9
2015-Feb-24 11:33N 55°06' E 009°38'3 3.2
2015-Feb-24 10:33N 55°04' E 009°33'2 1.2
2015-Feb-24 08:32N 55°05' E 009°37'2 1.9
2015-Feb-24 07:33N 55°04' E 009°34'4 0.3
2015-Feb-23 15:31N 55°08' E 009°37'3 3.1
2015-Feb-23 14:33N 55°05' E 009°36'3 3.2
2015-Feb-23 13:32N 55°03' E 009°32'3 2.9
2015-Feb-23 12:33N 55°04' E 009°36'2 2.0
2015-Feb-23 11:33N 55°06' E 009°38'4 3.3
2015-Feb-23 10:29N 55°03' E 009°33'1 0.8
2015-Feb-23 09:24N 55°03' E 009°35'  

Dump ship's entire track history